Clemson, South Carolina
Current Conditions -  °F | °C
As of 12:54 PM on Saturday 25 Oct 2014 (Local Time) from KCEU Reporting Station
Clear Clear  
Wind Chill: 22°   Ceiling: Unl
Heat Index: 22°   Visibility: 10mi
Dew Point:   Wind: 5mph
Humidity: 38%   Direction: 240°WSW
Pressure: 30.05"   Gusts: NA
Location:  34.68°N, 82.84°W
Report Text: KCEU 251654Z AUTO 24004KT 10SM CLR 22/07 A3005 RMK AO2 SLP168 T02170067
Loading
Personal Weather Stations






























Interactive Weather Map
Tropical Storm Tracking
New forecast layout! Learn more

10-Day Weather Forecast

Advertisements
Track Severe Weather on mobile